createdAt,value
2023-03-17T00:05:00.441Z,215680.00
2023-03-17T00:11:03.510Z,215660.00
2023-03-17T00:17:05.900Z,215646.00
2023-03-17T00:23:17.373Z,215702.00
2023-03-17T00:29:20.613Z,215755.00
2023-03-17T00:35:28.880Z,215755.00
2023-03-17T00:41:31.349Z,215775.00
2023-03-17T00:47:34.997Z,215797.00
2023-03-17T00:53:37.423Z,215797.00
2023-03-17T00:59:42.678Z,215803.00
2023-03-17T01:05:46.569Z,215797.00
2023-03-17T01:11:49.488Z,215803.00
2023-03-17T01:17:52.422Z,215816.00
2023-03-17T01:23:55.445Z,215848.00
2023-03-17T01:29:57.724Z,215864.00
2023-03-17T01:36:00.423Z,215875.00
2023-03-17T01:42:02.856Z,215875.00
2023-03-17T01:48:05.230Z,215816.00
2023-03-17T01:54:11.167Z,215814.00
2023-03-17T02:00:18.355Z,215755.00
2023-03-17T02:06:21.158Z,215694.00
2023-03-17T02:12:25.519Z,215646.00
2023-03-17T02:18:27.741Z,215591.00
2023-03-17T02:25:06.872Z,215498.00
2023-03-17T02:31:09.716Z,215409.00
2023-03-17T02:37:12.401Z,215328.00
2023-03-17T02:43:14.784Z,215275.00
2023-03-17T02:49:17.447Z,215194.00
2023-03-17T02:55:19.711Z,215146.00
2023-03-17T03:01:22.264Z,215098.00
2023-03-17T03:07:24.529Z,215072.00
2023-03-17T03:13:27.422Z,215037.00
2023-03-17T03:19:30.072Z,214978.00
2023-03-17T03:25:32.465Z,214919.00
2023-03-17T03:31:34.813Z,214871.00
2023-03-17T03:37:37.410Z,214815.00
2023-03-17T03:43:39.620Z,214784.00
2023-03-17T03:49:42.011Z,214715.00
2023-03-17T03:55:44.170Z,214709.00
2023-03-17T04:01:46.613Z,214676.00
2023-03-17T04:07:49.007Z,214656.00
2023-03-17T04:13:51.324Z,214636.00
2023-03-17T04:19:53.516Z,214648.00
2023-03-17T04:25:56.121Z,214650.00
2023-03-17T04:31:58.563Z,214695.00
2023-03-17T04:38:01.564Z,214729.00
2023-03-17T04:44:04.073Z,214804.00
2023-03-17T04:50:08.386Z,214871.00
2023-03-17T04:56:11.392Z,214992.00
2023-03-17T05:02:14.347Z,215465.00
2023-03-17T05:08:17.538Z,213983.00
2023-03-17T05:14:19.692Z,215427.00
2023-03-17T05:20:21.665Z,216593.00
2023-03-17T05:26:24.003Z,217518.00
2023-03-17T05:32:26.295Z,218567.00
2023-03-17T05:38:28.571Z,219083.00
2023-03-17T05:44:31.386Z,219725.00
2023-03-17T05:50:33.782Z,220324.00
2023-03-17T05:56:36.318Z,221060.00
2023-03-17T06:02:39.704Z,219760.00
2023-03-17T06:08:42.373Z,221411.00
2023-03-17T06:14:44.587Z,222426.00
2023-03-17T06:20:47.210Z,222905.00
2023-03-17T06:26:49.567Z,223062.00
2023-03-17T06:32:51.901Z,223525.00
2023-03-17T06:38:54.358Z,223655.00
2023-03-17T06:44:56.519Z,223932.00
2023-03-17T06:50:58.612Z,223852.00
2023-03-17T06:57:01.266Z,223956.00
2023-03-17T07:03:05.147Z,223830.00
2023-03-17T07:09:08.015Z,223687.00
2023-03-17T07:15:12.987Z,224016.00
2023-03-17T07:21:15.818Z,224232.00
2023-03-17T07:27:18.091Z,223876.00
2023-03-17T07:33:23.399Z,224226.00
2023-03-17T07:39:26.031Z,223994.00
2023-03-17T07:45:28.518Z,222953.00
2023-03-17T07:51:30.657Z,223323.00
2023-03-17T07:57:32.986Z,223755.00
2023-03-17T08:03:35.480Z,224255.00
2023-03-17T08:09:37.879Z,223315.00
2023-03-17T08:15:40.265Z,223868.00
2023-03-17T08:21:42.406Z,224113.00
2023-03-17T08:27:44.993Z,223852.00
2023-03-17T08:33:52.979Z,223733.00
2023-03-17T08:39:55.529Z,225006.00
2023-03-17T08:46:02.949Z,225223.00
2023-03-17T08:52:05.381Z,220465.00
2023-03-17T08:58:08.006Z,217853.00
2023-03-17T09:04:11.515Z,220615.00
2023-03-17T09:10:15.574Z,222308.00
2023-03-17T09:16:18.683Z,223158.00
2023-03-17T09:22:20.905Z,222891.00
2023-03-17T09:28:23.973Z,223717.00
2023-03-17T09:34:26.642Z,224239.00
2023-03-17T09:40:36.718Z,223270.00
2023-03-17T09:46:56.243Z,219711.00
2023-03-17T09:53:02.715Z,219177.00
2023-03-17T09:59:25.913Z,217738.00
2023-03-17T10:05:31.781Z,217071.00
2023-03-17T10:11:39.025Z,216766.00
2023-03-17T10:17:42.887Z,216282.00
2023-03-17T10:23:46.666Z,217568.00
2023-03-17T10:29:49.208Z,217524.00
2023-03-17T10:35:51.993Z,216774.00
2023-03-17T10:42:09.516Z,216260.00
2023-03-17T10:48:20.571Z,216078.00
2023-03-17T10:54:25.796Z,216015.00
2023-03-17T11:00:33.929Z,216015.00
2023-03-17T11:06:44.598Z,215833.00
2023-03-17T11:12:50.658Z,215769.00
2023-03-17T11:18:56.897Z,215678.00
2023-03-17T11:25:16.280Z,215615.00
2023-03-17T11:31:25.654Z,215995.00
2023-03-17T11:37:33.394Z,218996.00
2023-03-17T11:43:54.365Z,218953.00
2023-03-17T11:50:12.631Z,217809.00
2023-03-17T11:56:21.492Z,218646.00
2023-03-17T12:02:32.379Z,217510.00
2023-03-17T12:08:48.827Z,218838.00
2023-03-17T12:14:54.343Z,220376.00
2023-03-17T12:21:23.045Z,219054.00
2023-03-17T12:27:41.647Z,217694.00
2023-03-17T12:34:04.494Z,216874.00
2023-03-17T12:40:19.664Z,216647.00
2023-03-17T12:46:30.353Z,216268.00
2023-03-17T12:52:56.459Z,215987.00
2023-03-17T12:59:06.343Z,216669.00
2023-03-17T13:05:14.305Z,217694.00
2023-03-17T13:11:28.481Z,218258.00
2023-03-17T13:17:33.007Z,217825.00
2023-03-17T13:23:46.132Z,218472.00
2023-03-17T13:29:48.997Z,217488.00
2023-03-17T13:35:51.174Z,216332.00
2023-03-17T13:42:17.997Z,216529.00
2023-03-17T13:48:30.480Z,216191.00
2023-03-17T13:54:40.787Z,215929.00
2023-03-17T14:00:58.181Z,215819.00
2023-03-17T14:07:10.361Z,215700.00
2023-03-17T14:13:21.618Z,215588.00
2023-03-17T14:19:29.919Z,215496.00
2023-03-17T14:25:37.362Z,215449.00
2023-03-17T14:31:39.917Z,215489.00
2023-03-17T14:37:42.104Z,215413.00
2023-03-17T14:43:45.014Z,215239.00
2023-03-17T14:49:48.084Z,215084.00
2023-03-17T14:55:52.509Z,215008.00
2023-03-17T15:01:57.390Z,214932.00
2023-03-17T15:07:59.656Z,214919.00
2023-03-17T15:14:15.482Z,214779.00
2023-03-17T15:20:20.588Z,214737.00
2023-03-17T15:26:28.566Z,214667.00
2023-03-17T15:32:31.461Z,214523.00
2023-03-17T15:38:39.302Z,214466.00
2023-03-17T15:44:41.582Z,214363.00
2023-03-17T15:50:46.933Z,214225.00
2023-03-17T15:56:49.192Z,214099.00
2023-03-17T16:02:54.307Z,214025.00
2023-03-17T16:08:56.680Z,213914.00
2023-03-17T16:15:00.737Z,213811.00
2023-03-17T16:21:05.709Z,213681.00
2023-03-17T16:27:15.195Z,213611.00
2023-03-17T16:33:21.010Z,213603.00
2023-03-17T16:39:25.061Z,213645.00
2023-03-17T16:45:34.301Z,213700.00
2023-03-17T16:51:36.637Z,213714.00
2023-03-17T16:57:40.303Z,213714.00
2023-03-17T17:03:43.971Z,213700.00
2023-03-17T17:09:46.482Z,213734.00
2023-03-17T17:15:49.294Z,213728.00
2023-03-17T17:21:51.744Z,213714.00
2023-03-17T17:27:54.938Z,213734.00
2023-03-17T17:33:57.364Z,213748.00
2023-03-17T17:39:59.933Z,213742.00
2023-03-17T17:46:02.451Z,213762.00
2023-03-17T17:52:05.630Z,213776.00
2023-03-17T17:58:15.340Z,213811.00
2023-03-17T18:04:17.842Z,213830.00
2023-03-17T18:10:26.118Z,213858.00
2023-03-17T18:16:28.540Z,213900.00
2023-03-17T18:22:30.852Z,213892.00
2023-03-17T18:28:33.306Z,213811.00
2023-03-17T18:34:43.749Z,213830.00
2023-03-17T18:40:46.127Z,213816.00
2023-03-17T18:46:48.766Z,213852.00
2023-03-17T18:52:51.571Z,213864.00
2023-03-17T18:58:54.896Z,213830.00
2023-03-17T19:04:57.386Z,213830.00
2023-03-17T19:10:59.914Z,213811.00
2023-03-17T19:17:02.732Z,213816.00
2023-03-17T19:23:05.122Z,213803.00
2023-03-17T19:29:10.091Z,213816.00
2023-03-17T19:35:12.672Z,213797.00
2023-03-17T19:41:16.018Z,213778.00
2023-03-17T19:47:18.226Z,213776.00
2023-03-17T19:53:21.032Z,213776.00
2023-03-17T19:59:23.808Z,213756.00
2023-03-17T20:05:26.204Z,213742.00
2023-03-17T20:11:28.834Z,213700.00
2023-03-17T20:17:31.757Z,213667.00
2023-03-17T20:23:34.153Z,213631.00
2023-03-17T20:29:36.757Z,213603.00
2023-03-17T20:35:40.675Z,213575.00
2023-03-17T20:41:43.096Z,213561.00
2023-03-17T20:47:46.006Z,213509.00
2023-03-17T20:53:49.718Z,213481.00
2023-03-17T20:59:52.414Z,213501.00
2023-03-17T21:05:54.671Z,213461.00
2023-03-17T21:11:57.059Z,213431.00
2023-03-17T21:17:59.499Z,213419.00
2023-03-17T21:24:02.476Z,213411.00
2023-03-17T21:30:07.399Z,213376.00
2023-03-17T21:36:10.467Z,213336.00
2023-03-17T21:42:13.171Z,213322.00
2023-03-17T21:48:15.715Z,213294.00
2023-03-17T21:54:19.738Z,213262.00
2023-03-17T22:00:24.444Z,213254.00
2023-03-17T22:06:28.004Z,213226.00
2023-03-17T22:12:30.555Z,213212.00
2023-03-17T22:18:32.997Z,213198.00
2023-03-17T22:24:35.356Z,213170.00
2023-03-17T22:30:41.758Z,213158.00
2023-03-17T22:36:44.117Z,213137.00
2023-03-17T22:42:47.129Z,213125.00
2023-03-17T22:48:50.202Z,213125.00
2023-03-17T22:54:52.488Z,213117.00
2023-03-17T23:00:55.742Z,213097.00
2023-03-17T23:06:59.570Z,213097.00
2023-03-17T23:13:02.097Z,213075.00
2023-03-17T23:19:05.772Z,213061.00
2023-03-17T23:25:08.933Z,213047.00
2023-03-17T23:31:11.559Z,213011.00
2023-03-17T23:37:13.944Z,212995.00
2023-03-17T23:43:16.610Z,212995.00
2023-03-17T23:49:19.353Z,213011.00
2023-03-17T23:55:21.610Z,212975.00
